createdAt,value
2023-01-07T00:00:21.857Z,0
2023-01-07T00:01:21.440Z,0
2023-01-07T00:02:21.724Z,0
2023-01-07T00:03:21.668Z,0
2023-01-07T00:04:24.392Z,0
2023-01-07T00:05:21.412Z,0
2023-01-07T00:06:21.527Z,0
2023-01-07T00:07:21.443Z,0
2023-01-07T00:08:21.414Z,0
2023-01-07T00:09:21.573Z,0
2023-01-07T00:10:21.417Z,0
2023-01-07T00:11:21.435Z,0
2023-01-07T00:12:21.440Z,0
2023-01-07T00:13:21.422Z,0
2023-01-07T00:14:21.432Z,0
2023-01-07T00:15:24.472Z,0
2023-01-07T00:16:22.814Z,0
2023-01-07T00:17:21.436Z,0
2023-01-07T00:18:21.561Z,0
2023-01-07T00:19:21.612Z,0
2023-01-07T00:20:21.431Z,0
2023-01-07T00:21:21.435Z,0
2023-01-07T00:22:21.473Z,0
2023-01-07T00:23:21.415Z,0
2023-01-07T00:24:23.701Z,0
2023-01-07T00:25:21.448Z,0
2023-01-07T00:26:24.252Z,0
2023-01-07T00:27:21.457Z,0
2023-01-07T00:28:21.464Z,0
2023-01-07T00:29:21.524Z,0
2023-01-07T00:30:21.442Z,0
2023-01-07T00:31:21.686Z,0
2023-01-07T00:32:21.489Z,0
2023-01-07T00:33:21.452Z,0
2023-01-07T00:34:21.623Z,0
2023-01-07T00:35:21.616Z,0
2023-01-07T00:36:21.442Z,0
2023-01-07T00:37:24.232Z,0
2023-01-07T00:38:21.612Z,0
2023-01-07T00:39:21.584Z,0
2023-01-07T00:40:21.491Z,0
2023-01-07T00:41:21.491Z,0
2023-01-07T00:42:21.534Z,0
2023-01-07T00:43:21.491Z,0
2023-01-07T00:44:21.491Z,0
2023-01-07T00:45:21.463Z,0
2023-01-07T00:46:21.857Z,0
2023-01-07T00:47:21.471Z,0
2023-01-07T00:48:24.266Z,0
2023-01-07T00:49:21.509Z,0
2023-01-07T00:50:21.727Z,0
2023-01-07T00:51:21.643Z,0
2023-01-07T00:52:21.462Z,0
2023-01-07T00:53:24.394Z,0
2023-01-07T00:54:21.537Z,0
2023-01-07T00:55:21.496Z,0
2023-01-07T00:56:21.565Z,0
2023-01-07T00:57:21.507Z,0
2023-01-07T00:58:21.514Z,0
2023-01-07T00:59:24.647Z,0
2023-01-07T01:00:21.528Z,0
2023-01-07T01:01:22.159Z,0
2023-01-07T01:02:21.859Z,0
2023-01-07T01:03:21.488Z,0
2023-01-07T01:04:22.767Z,0
2023-01-07T01:05:21.478Z,0
2023-01-07T01:06:21.768Z,0
2023-01-07T01:07:21.645Z,0
2023-01-07T01:08:21.510Z,0
2023-01-07T01:09:21.652Z,0
2023-01-07T01:10:24.400Z,0
2023-01-07T01:11:21.542Z,0
2023-01-07T01:12:21.521Z,0
2023-01-07T01:13:25.002Z,0
2023-01-07T01:14:21.567Z,0
2023-01-07T01:15:24.660Z,0
2023-01-07T01:16:21.859Z,0
2023-01-07T01:17:21.525Z,0
2023-01-07T01:18:21.530Z,0
2023-01-07T01:19:24.306Z,0
2023-01-07T01:20:21.522Z,0
2023-01-07T01:21:24.632Z,0
2023-01-07T01:22:21.627Z,0
2023-01-07T01:23:21.634Z,0
2023-01-07T01:24:21.538Z,0
2023-01-07T01:25:21.678Z,0
2023-01-07T01:26:24.598Z,0
2023-01-07T01:27:21.514Z,0
2023-01-07T01:28:21.528Z,0
2023-01-07T01:29:21.538Z,0
2023-01-07T01:30:21.544Z,0
2023-01-07T01:31:21.665Z,0
2023-01-07T01:32:21.533Z,0
2023-01-07T01:33:21.537Z,0
2023-01-07T01:34:21.564Z,0
2023-01-07T01:35:21.579Z,0
2023-01-07T01:36:21.565Z,0
2023-01-07T01:37:24.727Z,0
2023-01-07T01:38:21.658Z,0
2023-01-07T01:39:21.720Z,0
2023-01-07T01:40:21.569Z,0
2023-01-07T01:41:21.699Z,0
2023-01-07T01:42:21.567Z,0
2023-01-07T01:43:21.536Z,0
2023-01-07T01:44:21.559Z,0
2023-01-07T01:45:21.564Z,0
2023-01-07T01:46:21.976Z,0
2023-01-07T01:47:21.559Z,0
2023-01-07T01:48:21.565Z,0
2023-01-07T01:49:21.603Z,0
2023-01-07T01:50:21.590Z,0
2023-01-07T01:51:21.594Z,0
2023-01-07T01:52:21.590Z,0
2023-01-07T01:53:24.742Z,0
2023-01-07T01:54:21.736Z,0
2023-01-07T01:55:21.722Z,0
2023-01-07T01:56:21.564Z,0
2023-01-07T01:57:21.763Z,0
2023-01-07T01:58:21.599Z,0
2023-01-07T01:59:21.619Z,0
2023-01-07T02:00:21.577Z,0
2023-01-07T02:01:22.439Z,0
2023-01-07T02:02:22.123Z,0
2023-01-07T02:03:21.587Z,0
2023-01-07T02:04:24.607Z,0
2023-01-07T02:05:21.640Z,0
2023-01-07T02:06:21.573Z,0
2023-01-07T02:07:21.578Z,0
2023-01-07T02:08:21.581Z,0
2023-01-07T02:09:24.561Z,0
2023-01-07T02:10:21.713Z,0
2023-01-07T02:11:21.721Z,0
2023-01-07T02:12:21.607Z,0
2023-01-07T02:13:21.746Z,0
2023-01-07T02:14:21.625Z,0
2023-01-07T02:15:24.413Z,0
2023-01-07T02:16:21.955Z,0
2023-01-07T02:17:21.631Z,0
2023-01-07T02:18:21.624Z,0
2023-01-07T02:19:21.687Z,0
2023-01-07T02:20:24.512Z,0
2023-01-07T02:21:21.624Z,0
2023-01-07T02:22:21.633Z,0
2023-01-07T02:23:21.687Z,0
2023-01-07T02:24:21.649Z,0
2023-01-07T02:25:21.745Z,0
2023-01-07T02:26:24.778Z,0
2023-01-07T02:27:23.520Z,0
2023-01-07T02:28:21.686Z,0
2023-01-07T02:29:21.774Z,0
2023-01-07T02:30:21.649Z,0
2023-01-07T02:31:24.760Z,0
2023-01-07T02:32:21.627Z,0
2023-01-07T02:33:21.665Z,0
2023-01-07T02:34:21.699Z,0
2023-01-07T02:35:21.638Z,0
2023-01-07T02:36:21.639Z,0
2023-01-07T02:37:24.715Z,0
2023-01-07T02:38:21.647Z,0
2023-01-07T02:39:21.674Z,0
2023-01-07T02:40:21.657Z,0
2023-01-07T02:41:21.776Z,0
2023-01-07T02:42:24.900Z,0
2023-01-07T02:43:21.654Z,0
2023-01-07T02:44:21.680Z,0
2023-01-07T02:45:21.775Z,0
2023-01-07T02:46:21.774Z,0
2023-01-07T02:47:21.654Z,0
2023-01-07T02:48:21.675Z,0
2023-01-07T02:49:21.701Z,0
2023-01-07T02:50:21.677Z,0
2023-01-07T02:51:21.662Z,0
2023-01-07T02:52:21.691Z,0
2023-01-07T02:53:24.481Z,0
2023-01-07T02:54:21.728Z,0
2023-01-07T02:55:21.669Z,0
2023-01-07T02:56:21.689Z,0
2023-01-07T02:57:21.792Z,0
2023-01-07T02:58:21.931Z,0
2023-01-07T02:59:21.732Z,0
2023-01-07T03:00:21.713Z,0
2023-01-07T03:01:22.625Z,0
2023-01-07T03:02:21.671Z,0
2023-01-07T03:03:21.679Z,0
2023-01-07T03:04:26.086Z,0
2023-01-07T03:05:21.687Z,0
2023-01-07T03:06:21.681Z,0
2023-01-07T03:07:21.679Z,0
2023-01-07T03:08:21.675Z,0
2023-01-07T03:09:21.705Z,0
2023-01-07T03:10:21.715Z,0
2023-01-07T03:11:21.681Z,0
2023-01-07T03:12:21.703Z,0
2023-01-07T03:13:21.862Z,0
2023-01-07T03:14:21.994Z,0
2023-01-07T03:15:24.979Z,0
2023-01-07T03:16:21.888Z,0
2023-01-07T03:17:21.833Z,0
2023-01-07T03:18:21.728Z,0
2023-01-07T03:19:21.683Z,0
2023-01-07T03:20:22.880Z,0
2023-01-07T03:21:21.745Z,0
2023-01-07T03:22:21.744Z,0
2023-01-07T03:23:21.736Z,0
2023-01-07T03:24:21.759Z,0
2023-01-07T03:25:21.747Z,0
2023-01-07T03:26:24.755Z,0
2023-01-07T03:27:21.742Z,0
2023-01-07T03:28:21.739Z,0
2023-01-07T03:29:21.874Z,0
2023-01-07T03:30:21.927Z,0
2023-01-07T03:31:25.009Z,0
2023-01-07T03:32:21.755Z,0
2023-01-07T03:33:21.832Z,0
2023-01-07T03:34:21.723Z,0
2023-01-07T03:35:21.809Z,0
2023-01-07T03:36:21.739Z,0
2023-01-07T03:37:24.471Z,0
2023-01-07T03:38:21.760Z,0
2023-01-07T03:39:21.760Z,0
2023-01-07T03:40:21.788Z,0
2023-01-07T03:41:21.746Z,0
2023-01-07T03:42:24.533Z,0
2023-01-07T03:43:21.761Z,0
2023-01-07T03:44:21.766Z,0
2023-01-07T03:45:21.912Z,0
2023-01-07T03:46:22.073Z,0
2023-01-07T03:47:21.770Z,0
2023-01-07T03:48:24.593Z,0
2023-01-07T03:49:21.910Z,0
2023-01-07T03:50:21.807Z,0
2023-01-07T03:51:21.769Z,0
2023-01-07T03:52:21.777Z,0
2023-01-07T03:53:24.983Z,0
2023-01-07T03:54:21.784Z,0
2023-01-07T03:55:21.793Z,0
2023-01-07T03:56:21.757Z,0
2023-01-07T03:57:21.788Z,0
2023-01-07T03:58:21.795Z,0
2023-01-07T03:59:21.795Z,0
2023-01-07T04:00:21.866Z,0
2023-01-07T04:01:22.461Z,0
2023-01-07T04:02:22.125Z,0
2023-01-07T04:03:21.802Z,0
2023-01-07T04:04:22.204Z,0
2023-01-07T04:05:21.925Z,0
2023-01-07T04:06:21.818Z,0
2023-01-07T04:07:21.871Z,0
2023-01-07T04:08:22.909Z,0
2023-01-07T04:09:21.864Z,0
2023-01-07T04:10:21.809Z,0
2023-01-07T04:11:21.838Z,0
2023-01-07T04:12:21.790Z,0
2023-01-07T04:13:21.805Z,0
2023-01-07T04:14:21.840Z,0
2023-01-07T04:15:21.901Z,0
2023-01-07T04:16:22.082Z,0
2023-01-07T04:17:21.913Z,0
2023-01-07T04:18:22.050Z,0
2023-01-07T04:19:21.890Z,0
2023-01-07T04:20:24.883Z,0
2023-01-07T04:21:22.090Z,0
2023-01-07T04:22:21.871Z,0
2023-01-07T04:23:21.862Z,0
2023-01-07T04:24:21.815Z,0
2023-01-07T04:25:21.828Z,0
2023-01-07T04:26:21.786Z,0
2023-01-07T04:27:21.842Z,0
2023-01-07T04:28:21.810Z,0
2023-01-07T04:31:36.839Z,0
2023-01-07T04:32:37.190Z,0
2023-01-07T04:33:39.184Z,0
2023-01-07T04:35:51.769Z,0
2023-01-07T04:40:34.412Z,0
2023-01-07T04:41:37.323Z,0
2023-01-07T04:42:37.326Z,0
2023-01-07T04:43:43.000Z,0
2023-01-07T04:44:36.998Z,0
2023-01-07T04:45:34.194Z,0
2023-01-07T04:46:34.478Z,0
2023-01-07T04:47:34.149Z,0
2023-01-07T04:48:37.186Z,0
2023-01-07T04:49:34.335Z,0
2023-01-07T04:50:34.214Z,0
2023-01-07T04:51:34.175Z,0
2023-01-07T04:52:34.175Z,0
2023-01-07T04:53:34.161Z,0
2023-01-07T04:54:37.192Z,0
2023-01-07T04:55:34.233Z,0
2023-01-07T04:56:34.427Z,0
2023-01-07T04:57:34.176Z,0
2023-01-07T04:58:34.188Z,0
2023-01-07T04:59:46.198Z,0
2023-01-07T05:00:34.260Z,0
2023-01-07T05:01:34.884Z,0
2023-01-07T05:02:34.205Z,0
2023-01-07T05:03:34.243Z,0
2023-01-07T05:04:34.635Z,0
2023-01-07T05:05:37.320Z,0
2023-01-07T05:06:34.223Z,0
2023-01-07T05:07:34.192Z,0
2023-01-07T05:08:34.215Z,0
2023-01-07T05:09:34.172Z,0
2023-01-07T05:10:36.960Z,0
2023-01-07T05:11:34.176Z,0
2023-01-07T05:12:34.444Z,0
2023-01-07T05:13:34.312Z,0
2023-01-07T05:14:34.258Z,0
2023-01-07T05:15:34.205Z,0
2023-01-07T05:16:37.665Z,0
2023-01-07T05:17:34.247Z,0
2023-01-07T05:18:34.268Z,0
2023-01-07T05:19:34.260Z,0
2023-01-07T05:20:34.338Z,0
2023-01-07T05:21:37.399Z,0
2023-01-07T05:22:34.223Z,0
2023-01-07T05:23:34.255Z,0
2023-01-07T05:24:34.249Z,0
2023-01-07T05:25:34.294Z,0
2023-01-07T05:26:34.235Z,0
2023-01-07T05:27:34.207Z,0
2023-01-07T05:28:34.574Z,0
2023-01-07T05:29:34.229Z,0
2023-01-07T05:31:34.261Z,0
2023-01-07T05:32:37.398Z,0
2023-01-07T05:33:34.359Z,0
2023-01-07T05:34:34.139Z,0
2023-01-07T05:35:37.254Z,0
2023-01-07T05:36:39.398Z,0
2023-01-07T05:37:39.535Z,0
2023-01-07T05:38:45.521Z,0
2023-01-07T05:52:53.847Z,0
2023-01-07T05:53:52.745Z,0
2023-01-07T05:54:56.510Z,0
2023-01-07T05:55:50.590Z,0
2023-01-07T06:01:00.498Z,0
2023-01-07T06:02:03.157Z,0
2023-01-07T06:03:00.194Z,0
2023-01-07T06:04:00.545Z,0
2023-01-07T06:05:00.549Z,0
2023-01-07T06:06:00.162Z,0
2023-01-07T06:07:03.196Z,0
2023-01-07T06:08:00.575Z,0
2023-01-07T06:09:00.168Z,0
2023-01-07T06:10:02.606Z,0
2023-01-07T06:11:00.112Z,0
2023-01-07T06:12:00.122Z,0
2023-01-07T06:13:02.924Z,0
2023-01-07T06:14:00.403Z,0
2023-01-07T06:15:00.144Z,0
2023-01-07T06:16:00.397Z,0
2023-01-07T06:17:00.160Z,0
2023-01-07T06:18:06.324Z,0
2023-01-07T06:19:00.256Z,0
2023-01-07T06:20:00.196Z,0
2023-01-07T06:21:00.280Z,0
2023-01-07T06:22:00.159Z,0
2023-01-07T06:23:02.520Z,0
2023-01-07T06:24:03.474Z,0
2023-01-07T06:25:00.175Z,0
2023-01-07T06:26:00.161Z,0
2023-01-07T06:27:00.155Z,0
2023-01-07T06:28:00.139Z,0
2023-01-07T06:29:02.053Z,0
2023-01-07T06:30:12.125Z,0
2023-01-07T06:31:00.613Z,0
2023-01-07T06:32:00.210Z,0
2023-01-07T06:33:00.304Z,0
2023-01-07T06:34:21.249Z,0
2023-01-07T06:35:03.285Z,0
2023-01-07T06:36:00.252Z,0
2023-01-07T06:37:00.261Z,0
2023-01-07T06:38:05.717Z,0
2023-01-07T06:39:00.382Z,0
2023-01-07T06:40:04.505Z,0
2023-01-07T06:41:00.171Z,0
2023-01-07T06:42:00.178Z,0
2023-01-07T06:43:00.169Z,0
2023-01-07T06:44:00.517Z,0
2023-01-07T06:45:00.209Z,0
2023-01-07T06:46:03.152Z,0
2023-01-07T06:47:00.203Z,0
2023-01-07T06:48:00.231Z,0
2023-01-07T06:49:00.234Z,0
2023-01-07T06:50:00.217Z,0
2023-01-07T06:51:03.075Z,0
2023-01-07T06:52:00.186Z,0
2023-01-07T06:53:00.232Z,0
2023-01-07T06:54:00.185Z,0
2023-01-07T06:55:00.337Z,0
2023-01-07T06:56:00.596Z,0
2023-01-07T06:57:02.982Z,0
2023-01-07T06:58:00.230Z,4
2023-01-07T06:59:00.224Z,4
2023-01-07T07:00:09.340Z,0
2023-01-07T07:01:09.456Z,0
2023-01-07T07:02:06.815Z,0
2023-01-07T07:03:00.686Z,4
2023-01-07T07:04:10.444Z,0
2023-01-07T07:05:07.639Z,0
2023-01-07T07:06:00.270Z,0
2023-01-07T07:07:00.229Z,0
2023-01-07T07:08:03.074Z,4
2023-01-07T07:09:00.341Z,4
2023-01-07T07:10:00.257Z,4
2023-01-07T07:11:00.420Z,4
2023-01-07T07:12:00.721Z,4
2023-01-07T07:13:03.105Z,4
2023-01-07T07:14:06.268Z,4
2023-01-07T07:15:04.762Z,4
2023-01-07T07:16:02.971Z,4
2023-01-07T07:17:08.176Z,4
2023-01-07T07:21:10.104Z,4
2023-01-07T07:22:00.239Z,8
2023-01-07T07:23:00.235Z,4
2023-01-07T07:24:00.244Z,8
2023-01-07T07:25:00.273Z,8
2023-01-07T07:26:00.280Z,4
2023-01-07T07:27:00.279Z,8
2023-01-07T07:28:00.671Z,8
2023-01-07T07:29:00.282Z,4
2023-01-07T07:30:00.258Z,8
2023-01-07T07:33:21.188Z,12
2023-01-07T07:34:17.063Z,8
2023-01-07T07:35:11.486Z,12
2023-01-07T07:36:03.014Z,12
2023-01-07T07:37:04.171Z,12
2023-01-07T07:38:00.363Z,8
2023-01-07T07:39:05.683Z,12
2023-01-07T07:40:06.593Z,12
2023-01-07T07:41:00.325Z,12
2023-01-07T07:42:00.365Z,12
2023-01-07T07:43:19.346Z,12
2023-01-07T07:44:01.396Z,16
2023-01-07T07:45:00.397Z,16
2023-01-07T07:46:00.343Z,16
2023-01-07T07:47:00.521Z,16
2023-01-07T07:48:00.308Z,16
2023-01-07T07:49:00.303Z,20
2023-01-07T07:50:00.354Z,20
2023-01-07T07:51:00.300Z,16
2023-01-07T07:52:00.317Z,20
2023-01-07T07:53:00.277Z,20
2023-01-07T07:54:00.326Z,20
2023-01-07T07:55:31.458Z,20
2023-01-07T07:57:15.218Z,20
2023-01-07T07:58:00.360Z,20
2023-01-07T07:59:00.854Z,20
2023-01-07T08:00:03.289Z,24
2023-01-07T08:01:00.524Z,20
2023-01-07T08:02:00.643Z,24
2023-01-07T08:03:00.498Z,24
2023-01-07T08:04:00.304Z,24
2023-01-07T08:05:00.365Z,24
2023-01-07T08:06:05.555Z,24
2023-01-07T08:07:05.726Z,28
2023-01-07T08:08:03.120Z,24
2023-01-07T08:09:00.370Z,24
2023-01-07T08:10:03.109Z,28
2023-01-07T08:11:06.178Z,28
2023-01-07T08:16:04.049Z,28
2023-01-07T08:17:06.544Z,28
2023-01-07T08:18:03.151Z,32
2023-01-07T08:19:05.750Z,32
2023-01-07T08:20:00.477Z,32
2023-01-07T08:22:18.489Z,32
2023-01-07T08:24:18.316Z,36
2023-01-07T08:25:03.336Z,36
2023-01-07T08:26:01.119Z,36
2023-01-07T08:27:04.296Z,36
2023-01-07T08:28:02.155Z,40
2023-01-07T08:29:20.424Z,40
2023-01-07T08:30:01.685Z,40
2023-01-07T08:31:04.332Z,44
2023-01-07T08:32:02.406Z,44
2023-01-07T08:33:09.220Z,44
2023-01-07T08:34:06.452Z,44
2023-01-07T08:35:00.395Z,44
2023-01-07T08:36:09.257Z,44
2023-01-07T08:40:11.244Z,40
2023-01-07T08:41:00.384Z,40
2023-01-07T08:42:00.388Z,40
2023-01-07T08:43:00.376Z,36
2023-01-07T08:44:00.386Z,40
2023-01-07T08:45:03.477Z,40
2023-01-07T08:46:00.399Z,40
2023-01-07T08:47:00.807Z,40
2023-01-07T08:48:00.714Z,40
2023-01-07T08:49:01.392Z,44
2023-01-07T08:50:00.385Z,40
2023-01-07T08:51:03.368Z,48
2023-01-07T08:52:00.396Z,44
2023-01-07T08:53:00.402Z,44
2023-01-07T08:54:00.348Z,44
2023-01-07T08:55:00.377Z,44
2023-01-07T08:56:02.037Z,44
2023-01-07T08:57:00.395Z,40
2023-01-07T08:58:00.372Z,40
2023-01-07T08:59:00.401Z,40
2023-01-07T09:00:00.407Z,36
2023-01-07T09:01:01.082Z,36
2023-01-07T09:02:03.182Z,40
2023-01-07T09:03:00.505Z,40
2023-01-07T09:04:00.760Z,40
2023-01-07T09:05:00.534Z,40
2023-01-07T09:06:06.013Z,44
2023-01-07T09:07:11.196Z,44
2023-01-07T09:08:25.836Z,44
2023-01-07T09:10:15.472Z,48
2023-01-07T09:11:00.437Z,48
2023-01-07T09:12:03.456Z,52
2023-01-07T09:13:09.411Z,52
2023-01-07T09:15:03.570Z,52
2023-01-07T09:16:00.572Z,52
2023-01-07T09:17:00.434Z,52
2023-01-07T09:18:03.151Z,56
2023-01-07T09:19:00.423Z,52
2023-01-07T09:20:00.889Z,56
2023-01-07T09:21:00.435Z,56
2023-01-07T09:22:00.445Z,60
2023-01-07T09:23:00.429Z,60
2023-01-07T09:24:03.521Z,60
2023-01-07T09:25:00.436Z,60
2023-01-07T09:26:00.471Z,60
2023-01-07T09:27:00.422Z,60
2023-01-07T09:28:00.453Z,60
2023-01-07T09:29:03.400Z,60
2023-01-07T09:30:00.427Z,60
2023-01-07T09:31:02.812Z,60
2023-01-07T09:32:00.684Z,60
2023-01-07T09:33:00.447Z,60
2023-01-07T09:34:00.444Z,60
2023-01-07T09:35:03.332Z,60
2023-01-07T09:36:01.222Z,60
2023-01-07T09:37:00.461Z,60
2023-01-07T09:38:00.473Z,60
2023-01-07T09:39:00.449Z,64
2023-01-07T09:40:03.265Z,60
2023-01-07T09:41:00.483Z,60
2023-01-07T09:42:00.456Z,60
2023-01-07T09:43:00.504Z,60
2023-01-07T09:44:09.353Z,60
2023-01-07T09:45:00.452Z,60
2023-01-07T09:46:00.863Z,60
2023-01-07T09:47:00.455Z,60
2023-01-07T09:48:00.494Z,60
2023-01-07T09:49:00.461Z,60
2023-01-07T09:50:00.495Z,60
2023-01-07T09:51:00.615Z,60
2023-01-07T09:52:00.821Z,60
2023-01-07T09:53:00.452Z,60
2023-01-07T09:54:00.494Z,64
2023-01-07T09:55:00.460Z,64
2023-01-07T09:56:18.649Z,64
2023-01-07T09:57:00.477Z,64
2023-01-07T09:58:00.490Z,64
2023-01-07T09:59:00.469Z,68
2023-01-07T10:00:00.460Z,64
2023-01-07T10:01:00.733Z,64
2023-01-07T10:02:00.500Z,64
2023-01-07T10:03:00.827Z,68
2023-01-07T10:04:00.780Z,68
2023-01-07T10:05:00.507Z,68
2023-01-07T10:06:00.479Z,72
2023-01-07T10:07:03.768Z,68
2023-01-07T10:08:37.398Z,72
2023-01-07T10:09:00.503Z,72
2023-01-07T10:10:00.508Z,72
2023-01-07T10:11:00.539Z,76
2023-01-07T10:12:00.567Z,76
2023-01-07T10:13:00.503Z,76
2023-01-07T10:14:00.531Z,76
2023-01-07T10:15:00.646Z,80
2023-01-07T10:16:00.512Z,80
2023-01-07T10:17:00.580Z,80
2023-01-07T10:18:00.515Z,80
2023-01-07T10:19:00.590Z,84
2023-01-07T10:20:00.514Z,84
2023-01-07T10:21:00.528Z,88
2023-01-07T10:22:00.543Z,88
2023-01-07T10:23:03.655Z,88
2023-01-07T10:24:00.886Z,88
2023-01-07T10:25:00.520Z,92
2023-01-07T10:26:00.507Z,92
2023-01-07T10:27:00.557Z,96
2023-01-07T10:28:00.537Z,92
2023-01-07T10:29:00.533Z,92
2023-01-07T10:30:00.559Z,100
2023-01-07T10:31:00.559Z,100
2023-01-07T10:32:01.002Z,100
2023-01-07T10:33:00.539Z,104
2023-01-07T10:34:03.615Z,104
2023-01-07T10:35:00.553Z,104
2023-01-07T10:36:02.488Z,108
2023-01-07T10:37:00.587Z,108
2023-01-07T10:38:00.526Z,112
2023-01-07T10:39:00.649Z,112
2023-01-07T10:40:00.911Z,116
2023-01-07T10:41:00.534Z,120
2023-01-07T10:42:00.579Z,120
2023-01-07T10:43:00.567Z,124
2023-01-07T10:44:00.548Z,128
2023-01-07T10:45:03.308Z,132
2023-01-07T10:46:00.880Z,136
2023-01-07T10:47:00.579Z,140
2023-01-07T10:48:00.584Z,148
2023-01-07T10:49:00.555Z,152
2023-01-07T10:50:00.574Z,156
2023-01-07T10:51:00.554Z,152
2023-01-07T10:52:00.634Z,156
2023-01-07T10:53:00.587Z,156
2023-01-07T10:54:00.565Z,152
2023-01-07T10:55:00.688Z,148
2023-01-07T10:56:03.741Z,148
2023-01-07T10:57:00.621Z,152
2023-01-07T10:58:00.586Z,156
2023-01-07T10:59:00.548Z,164
2023-01-07T11:00:00.577Z,164
2023-01-07T11:01:04.290Z,164
2023-01-07T11:02:01.893Z,164
2023-01-07T11:03:00.887Z,164
2023-01-07T11:04:00.572Z,156
2023-01-07T11:05:00.608Z,168
2023-01-07T11:06:00.573Z,164
2023-01-07T11:07:03.518Z,168
2023-01-07T11:08:00.588Z,172
2023-01-07T11:09:00.600Z,172
2023-01-07T11:10:00.612Z,176
2023-01-07T11:11:03.197Z,188
2023-01-07T11:12:02.476Z,188
2023-01-07T11:13:00.580Z,196
2023-01-07T11:14:00.625Z,196
2023-01-07T11:15:00.629Z,204
2023-01-07T11:16:00.624Z,216
2023-01-07T11:17:00.919Z,232
2023-01-07T11:18:03.665Z,244
2023-01-07T11:19:00.784Z,248
2023-01-07T11:20:00.638Z,240
2023-01-07T11:21:00.624Z,228
2023-01-07T11:22:01.411Z,216
2023-01-07T11:23:03.405Z,212
2023-01-07T11:24:00.624Z,208
2023-01-07T11:25:00.619Z,200
2023-01-07T11:26:00.621Z,200
2023-01-07T11:27:00.670Z,200
2023-01-07T11:28:01.017Z,196
2023-01-07T11:29:03.819Z,184
2023-01-07T11:30:00.691Z,180
2023-01-07T11:31:00.696Z,176
2023-01-07T11:32:01.022Z,180
2023-01-07T11:33:00.696Z,192
2023-01-07T11:34:10.669Z,204
2023-01-07T11:35:00.650Z,204
2023-01-07T11:36:00.633Z,204
2023-01-07T11:37:00.759Z,200
2023-01-07T11:38:00.658Z,192
2023-01-07T11:39:00.635Z,184
2023-01-07T11:40:03.429Z,172
2023-01-07T11:41:02.880Z,168
2023-01-07T11:42:00.726Z,156
2023-01-07T11:43:00.776Z,156
2023-01-07T11:44:01.006Z,156
2023-01-07T11:45:03.714Z,160
2023-01-07T11:46:30.793Z,156
2023-01-07T11:47:01.025Z,152
2023-01-07T11:48:00.639Z,152
2023-01-07T11:49:00.660Z,152
2023-01-07T11:50:00.646Z,144
2023-01-07T11:51:03.248Z,148
2023-01-07T11:52:00.679Z,140
2023-01-07T11:53:00.668Z,140
2023-01-07T11:54:00.650Z,136
2023-01-07T11:55:00.701Z,128
2023-01-07T11:56:03.862Z,116
2023-01-07T11:57:02.177Z,116
2023-01-07T11:58:34.269Z,136
2023-01-07T11:59:00.677Z,148
2023-01-07T12:00:01.031Z,168
2023-01-07T12:01:00.782Z,188
2023-01-07T12:02:04.326Z,196
2023-01-07T12:03:00.696Z,200
2023-01-07T12:04:00.770Z,196
2023-01-07T12:05:00.538Z,208
2023-01-07T12:06:00.724Z,216
2023-01-07T12:07:03.631Z,216
2023-01-07T12:08:00.677Z,216
2023-01-07T12:09:00.748Z,224
2023-01-07T12:10:00.668Z,236
2023-01-07T12:11:00.747Z,244
2023-01-07T12:12:00.737Z,256
2023-01-07T12:13:01.569Z,268
2023-01-07T12:14:00.846Z,284
2023-01-07T12:15:00.741Z,288
2023-01-07T12:16:01.099Z,292
2023-01-07T12:17:00.918Z,284
2023-01-07T12:18:00.749Z,272
2023-01-07T12:19:00.747Z,260
2023-01-07T12:20:00.742Z,256
2023-01-07T12:21:00.702Z,260
2023-01-07T12:22:00.766Z,276
2023-01-07T12:23:05.812Z,292
2023-01-07T12:24:00.718Z,296
2023-01-07T12:25:00.747Z,284
2023-01-07T12:26:00.828Z,256
2023-01-07T12:27:00.763Z,240
2023-01-07T12:28:00.741Z,236
2023-01-07T12:29:00.747Z,232
2023-01-07T12:30:00.827Z,224
2023-01-07T12:31:00.915Z,208
2023-01-07T12:32:01.148Z,196
2023-01-07T12:33:00.766Z,192
2023-01-07T12:34:03.564Z,200
2023-01-07T12:35:16.968Z,192
2023-01-07T12:36:00.805Z,184
2023-01-07T12:37:00.765Z,188
2023-01-07T12:38:00.882Z,208
2023-01-07T12:39:00.753Z,204
2023-01-07T12:40:03.292Z,188
2023-01-07T12:41:00.801Z,188
2023-01-07T12:42:00.760Z,204
2023-01-07T12:43:00.798Z,204
2023-01-07T12:44:04.518Z,192
2023-01-07T12:45:03.722Z,180
2023-01-07T12:46:01.084Z,172
2023-01-07T12:47:39.897Z,188
2023-01-07T12:48:00.904Z,192
2023-01-07T12:49:00.949Z,180
2023-01-07T12:50:03.654Z,160
2023-01-07T12:51:00.811Z,140
2023-01-07T12:52:00.777Z,136
2023-01-07T12:53:00.891Z,136
2023-01-07T12:54:00.864Z,140
2023-01-07T12:55:00.755Z,144
2023-01-07T12:56:00.867Z,148
2023-01-07T12:57:00.761Z,160
2023-01-07T12:58:00.781Z,156
2023-01-07T12:59:00.783Z,160
2023-01-07T13:00:01.366Z,172
2023-01-07T13:01:04.986Z,188
2023-01-07T13:02:01.451Z,204
2023-01-07T13:03:01.059Z,212
2023-01-07T13:04:00.852Z,232
2023-01-07T13:05:01.087Z,252
2023-01-07T13:06:00.841Z,256
2023-01-07T13:07:00.788Z,276
2023-01-07T13:08:02.786Z,268
2023-01-07T13:09:00.814Z,248
2023-01-07T13:10:00.817Z,232
2023-01-07T13:11:00.808Z,220
2023-01-07T13:12:03.793Z,204
2023-01-07T13:13:00.849Z,200
2023-01-07T13:14:00.783Z,200
2023-01-07T13:15:00.792Z,200
2023-01-07T13:16:01.058Z,200
2023-01-07T13:17:00.907Z,188
2023-01-07T13:18:01.097Z,184
2023-01-07T13:19:01.069Z,176
2023-01-07T13:20:02.367Z,172
2023-01-07T13:21:00.650Z,164
2023-01-07T13:22:00.780Z,156
2023-01-07T13:23:03.896Z,156
2023-01-07T13:24:00.814Z,168
2023-01-07T13:25:01.665Z,176
2023-01-07T13:26:00.812Z,196
2023-01-07T13:27:00.860Z,192
2023-01-07T13:28:02.206Z,204
2023-01-07T13:29:00.853Z,220
2023-01-07T13:30:01.326Z,240
2023-01-07T13:31:01.080Z,236
2023-01-07T13:32:00.835Z,196
2023-01-07T13:33:00.802Z,212
2023-01-07T13:34:04.144Z,176
2023-01-07T13:35:00.945Z,180
2023-01-07T13:36:01.084Z,184
2023-01-07T13:37:02.723Z,172
2023-01-07T13:38:00.868Z,152
2023-01-07T13:39:03.684Z,144
2023-01-07T13:40:00.868Z,132
2023-01-07T13:41:00.860Z,132
2023-01-07T13:42:00.822Z,140
2023-01-07T13:43:00.853Z,160
2023-01-07T13:44:00.836Z,140
2023-01-07T13:45:03.998Z,156
2023-01-07T13:46:01.128Z,160
2023-01-07T13:47:00.855Z,160
2023-01-07T13:48:01.389Z,160
2023-01-07T13:49:01.193Z,160
2023-01-07T13:50:04.964Z,160
2023-01-07T13:51:00.910Z,160
2023-01-07T13:52:01.038Z,168
2023-01-07T13:53:00.970Z,176
2023-01-07T13:54:01.020Z,156
2023-01-07T13:55:01.002Z,168
2023-01-07T13:56:01.243Z,176
2023-01-07T13:57:00.858Z,168
2023-01-07T13:58:00.888Z,156
2023-01-07T13:59:00.856Z,140
2023-01-07T14:00:00.917Z,132
2023-01-07T14:01:04.313Z,132
2023-01-07T14:02:01.498Z,136
2023-01-07T14:03:01.354Z,132
2023-01-07T14:04:00.953Z,124
2023-01-07T14:05:01.070Z,124
2023-01-07T14:06:02.991Z,116
2023-01-07T14:07:04.016Z,120
2023-01-07T14:08:01.039Z,136
2023-01-07T14:09:00.987Z,136
2023-01-07T14:10:00.901Z,136
2023-01-07T14:11:00.905Z,132
2023-01-07T14:12:04.014Z,136
2023-01-07T14:13:00.952Z,140
2023-01-07T14:14:00.968Z,144
2023-01-07T14:15:00.941Z,144
2023-01-07T14:16:01.437Z,140
2023-01-07T14:17:00.979Z,140
2023-01-07T14:18:03.875Z,128
2023-01-07T14:19:00.985Z,124
2023-01-07T14:20:00.938Z,128
2023-01-07T14:21:01.151Z,124
2023-01-07T14:22:01.176Z,124
2023-01-07T14:23:04.048Z,120
2023-01-07T14:24:01.038Z,116
2023-01-07T14:25:00.928Z,120
2023-01-07T14:26:01.048Z,116
2023-01-07T14:27:00.921Z,116
2023-01-07T14:28:00.952Z,116
2023-01-07T14:29:03.671Z,112
2023-01-07T14:30:20.357Z,108
2023-01-07T14:31:01.160Z,108
2023-01-07T14:32:00.972Z,104
2023-01-07T14:33:00.968Z,96
2023-01-07T14:34:04.005Z,92
2023-01-07T14:35:00.996Z,92
2023-01-07T14:36:01.026Z,92
2023-01-07T14:37:02.073Z,88
2023-01-07T14:38:01.282Z,88
2023-01-07T14:39:00.989Z,84
2023-01-07T14:40:01.091Z,80
2023-01-07T14:41:00.964Z,76
2023-01-07T14:42:00.968Z,76
2023-01-07T14:43:01.018Z,76
2023-01-07T14:44:00.997Z,76
2023-01-07T14:45:00.947Z,76
2023-01-07T14:46:01.075Z,72
2023-01-07T14:47:01.464Z,72
2023-01-07T14:48:00.979Z,72
2023-01-07T14:49:01.136Z,72
2023-01-07T14:50:00.972Z,72
2023-01-07T14:51:00.992Z,68
2023-01-07T14:52:03.108Z,68
2023-01-07T14:53:01.022Z,68
2023-01-07T14:54:01.433Z,64
2023-01-07T14:55:00.984Z,64
2023-01-07T14:56:01.158Z,64
2023-01-07T14:57:01.015Z,64
2023-01-07T14:58:00.999Z,60
2023-01-07T14:59:01.000Z,60
2023-01-07T15:00:00.989Z,60
2023-01-07T15:01:04.433Z,60
2023-01-07T15:02:01.526Z,52
2023-01-07T15:03:01.380Z,52
2023-01-07T15:04:01.082Z,52
2023-01-07T15:05:01.163Z,48